Omiya, Japan
Current Conditions -  °F | °C
As of 5:58 AM on Saturday 29 Nov 2014 (Local Time) from RJTY Reporting Station
Overcast Overcast  
Wind Chill: 50°   Ceiling: 8000
Heat Index: 50°   Visibility: 10mi
Dew Point: 49°   Wind: 0mph
Humidity: 98%   Direction: NA
Pressure: 30.05"   Gusts: NA
Location:  35.9°N, 139.63°E
Report Text: RJTY 282058Z AUTO 00000KT 10SM OVC080 10/10 A3005 RMK AO2 SLP181 T00980095 57019
Loading
Personal Weather Stations






























Interactive Weather Map New forecast layout! Learn more

10-Day Weather Forecast

Advertisements
Track Severe Weather on mobile